createdAt,value
2023-03-23T00:02:20.854Z,43
2023-03-23T00:04:51.045Z,44
2023-03-23T00:09:50.388Z,43
2023-03-23T00:12:24.862Z,47
2023-03-23T00:14:55.933Z,47
2023-03-23T00:17:25.792Z,40
2023-03-23T00:20:00.188Z,47
2023-03-23T00:22:30.781Z,41
2023-03-23T00:25:01.779Z,45
2023-03-23T00:27:32.125Z,44
2023-03-23T00:30:02.527Z,40
2023-03-23T00:32:33.464Z,43
2023-03-23T00:35:05.155Z,40
2023-03-23T00:37:35.485Z,43
2023-03-23T00:40:05.975Z,44
2023-03-23T00:42:37.482Z,41
2023-03-23T00:45:07.868Z,40
2023-03-23T00:47:38.426Z,36
2023-03-23T00:50:08.156Z,40
2023-03-23T00:52:38.680Z,36
2023-03-23T00:55:09.264Z,37
2023-03-23T00:57:38.282Z,40
2023-03-23T01:00:08.357Z,40
2023-03-23T01:02:39.071Z,39
2023-03-23T01:05:09.241Z,38
2023-03-23T01:07:41.440Z,36
2023-03-23T01:10:18.069Z,39
2023-03-23T01:12:48.187Z,36
2023-03-23T01:15:18.549Z,36
2023-03-23T01:17:51.152Z,36
2023-03-23T01:20:22.649Z,36
2023-03-23T01:22:53.165Z,40
2023-03-23T01:25:23.824Z,40
2023-03-23T01:27:54.056Z,40
2023-03-23T01:30:24.375Z,40
2023-03-23T01:32:55.664Z,36
2023-03-23T01:35:25.854Z,36
2023-03-23T01:37:55.200Z,37
2023-03-23T01:40:25.531Z,36
2023-03-23T01:42:55.761Z,36
2023-03-23T01:45:26.333Z,40
2023-03-23T01:47:56.363Z,40
2023-03-23T01:50:27.048Z,40
2023-03-23T01:52:58.896Z,40
2023-03-23T01:55:29.791Z,40
2023-03-23T01:57:59.941Z,39
2023-03-23T02:00:30.396Z,36
2023-03-23T02:03:00.732Z,39
2023-03-23T02:05:31.476Z,40
2023-03-23T02:08:01.530Z,36
2023-03-23T02:10:33.165Z,38
2023-03-23T02:13:03.702Z,36
2023-03-23T02:15:35.187Z,40
2023-03-23T02:18:05.642Z,40
2023-03-23T02:20:36.101Z,36
2023-03-23T02:23:06.699Z,36
2023-03-23T02:25:37.364Z,36
2023-03-23T02:28:08.066Z,36
2023-03-23T02:30:38.797Z,36
2023-03-23T02:33:09.370Z,36
2023-03-23T02:35:39.799Z,40
2023-03-23T02:38:09.964Z,36
2023-03-23T02:40:40.570Z,36
2023-03-23T02:43:10.636Z,40
2023-03-23T02:45:41.261Z,36
2023-03-23T02:48:12.206Z,37
2023-03-23T02:50:42.549Z,36
2023-03-23T02:53:13.604Z,32
2023-03-23T02:55:43.951Z,35
2023-03-23T02:58:14.184Z,36
2023-03-23T03:00:44.229Z,32
2023-03-23T03:03:14.737Z,36
2023-03-23T03:05:44.978Z,36
2023-03-23T03:08:16.122Z,32
2023-03-23T03:10:46.854Z,36
2023-03-23T03:13:17.359Z,36
2023-03-23T03:15:47.449Z,36
2023-03-23T03:18:18.140Z,36
2023-03-23T03:20:48.324Z,34
2023-03-23T03:23:18.466Z,32
2023-03-23T03:25:48.449Z,33
2023-03-23T03:28:19.865Z,36
2023-03-23T03:30:50.601Z,36
2023-03-23T03:33:20.856Z,36
2023-03-23T03:35:55.729Z,36
2023-03-23T03:38:25.968Z,36
2023-03-23T03:40:56.176Z,36
2023-03-23T03:43:26.269Z,36
2023-03-23T03:45:56.692Z,33
2023-03-23T03:48:27.345Z,34
2023-03-23T03:51:01.116Z,32
2023-03-23T03:53:31.731Z,36
2023-03-23T03:56:01.500Z,35
2023-03-23T03:58:31.513Z,32
2023-03-23T04:01:01.965Z,36
2023-03-23T04:03:32.265Z,32
2023-03-23T04:06:00.768Z,32
2023-03-23T04:08:30.989Z,32
2023-03-23T04:11:00.424Z,36
2023-03-23T04:13:30.592Z,32
2023-03-23T04:16:07.406Z,33
2023-03-23T04:18:32.261Z,32
2023-03-23T04:21:04.439Z,32
2023-03-23T04:23:32.584Z,32
2023-03-23T04:26:02.867Z,32
2023-03-23T04:28:36.826Z,32
2023-03-23T04:31:06.878Z,32
2023-03-23T04:33:57.598Z,32
2023-03-23T04:36:07.751Z,32
2023-03-23T04:38:37.858Z,32
2023-03-23T04:41:08.962Z,36
2023-03-23T04:43:40.184Z,33
2023-03-23T04:46:10.832Z,32
2023-03-23T04:48:41.207Z,34
2023-03-23T04:51:12.051Z,34
2023-03-23T04:53:42.447Z,32
2023-03-23T04:56:12.651Z,32
2023-03-23T04:58:44.290Z,35
2023-03-23T05:01:15.094Z,33
2023-03-23T05:03:45.160Z,32
2023-03-23T05:06:13.699Z,32
2023-03-23T05:08:44.395Z,33
2023-03-23T05:11:14.765Z,34
2023-03-23T05:13:45.505Z,32
2023-03-23T05:16:16.295Z,36
2023-03-23T05:18:46.502Z,32
2023-03-23T05:21:17.253Z,32
2023-03-23T05:23:47.310Z,32
2023-03-23T05:26:17.867Z,32
2023-03-23T05:28:48.210Z,32
2023-03-23T05:31:18.330Z,32
2023-03-23T05:33:48.666Z,33
2023-03-23T05:36:19.403Z,32
2023-03-23T05:38:50.608Z,36
2023-03-23T05:41:20.595Z,32
2023-03-23T05:43:51.363Z,33
2023-03-23T05:46:22.010Z,35
2023-03-23T05:48:58.541Z,36
2023-03-23T05:51:28.801Z,35
2023-03-23T05:53:58.906Z,35
2023-03-23T05:56:29.491Z,36
2023-03-23T05:59:00.624Z,36
2023-03-23T06:01:32.670Z,36
2023-03-23T06:04:02.845Z,36
2023-03-23T06:06:33.740Z,36
2023-03-23T06:09:06.073Z,38
2023-03-23T06:11:35.205Z,35
2023-03-23T06:14:04.247Z,36
2023-03-23T06:16:35.988Z,38
2023-03-23T06:19:14.180Z,36
2023-03-23T06:21:44.241Z,36
2023-03-23T06:24:14.454Z,37
2023-03-23T06:26:44.747Z,36
2023-03-23T06:29:14.754Z,36
2023-03-23T06:31:43.621Z,36
2023-03-23T06:34:14.250Z,37
2023-03-23T06:36:44.404Z,36
2023-03-23T06:39:14.656Z,34
2023-03-23T06:41:46.800Z,36
2023-03-23T06:44:17.491Z,40
2023-03-23T06:46:48.091Z,40
2023-03-23T06:49:19.963Z,36
2023-03-23T06:51:50.231Z,33
2023-03-23T06:54:22.744Z,36
2023-03-23T06:56:52.738Z,40
2023-03-23T06:59:23.910Z,37
2023-03-23T07:01:54.545Z,43
2023-03-23T07:04:24.918Z,40
2023-03-23T07:06:55.071Z,37
2023-03-23T07:09:34.407Z,36
2023-03-23T07:11:55.750Z,38
2023-03-23T07:14:26.078Z,37
2023-03-23T07:16:56.130Z,36
2023-03-23T07:19:26.441Z,36
2023-03-23T07:21:56.774Z,37
2023-03-23T07:24:27.059Z,36
2023-03-23T07:26:57.399Z,40
2023-03-23T07:29:28.435Z,40
2023-03-23T07:32:03.036Z,36
2023-03-23T07:34:33.329Z,37
2023-03-23T07:37:03.902Z,36
2023-03-23T07:39:34.949Z,33
2023-03-23T07:42:04.858Z,36
2023-03-23T07:44:35.953Z,32
2023-03-23T07:47:06.411Z,32
2023-03-23T07:49:35.312Z,32
2023-03-23T07:52:06.816Z,32
2023-03-23T07:54:37.267Z,32
2023-03-23T07:57:08.439Z,34
2023-03-23T07:59:38.987Z,32
2023-03-23T08:02:09.172Z,32
2023-03-23T08:04:39.274Z,36
2023-03-23T08:07:10.710Z,28
2023-03-23T08:09:41.211Z,28
2023-03-23T08:12:11.923Z,24
2023-03-23T08:14:42.478Z,26
2023-03-23T08:17:13.020Z,24
2023-03-23T08:19:44.488Z,21
2023-03-23T08:22:15.233Z,24
2023-03-23T08:24:46.041Z,20
2023-03-23T08:27:17.529Z,20
2023-03-23T08:29:48.423Z,20
2023-03-23T08:32:18.651Z,24
2023-03-23T08:34:49.119Z,32
2023-03-23T08:37:20.073Z,40
2023-03-23T08:39:51.157Z,24
2023-03-23T08:42:21.917Z,20
2023-03-23T08:44:52.027Z,16
2023-03-23T08:47:25.780Z,20
2023-03-23T08:49:56.057Z,20
2023-03-23T08:52:26.837Z,20
2023-03-23T08:54:56.991Z,20
2023-03-23T08:57:28.033Z,20
2023-03-23T08:59:58.861Z,20
2023-03-23T09:02:30.400Z,24
2023-03-23T09:05:00.753Z,20
2023-03-23T09:07:31.288Z,20
2023-03-23T09:10:01.821Z,24
2023-03-23T09:12:32.487Z,23
2023-03-23T09:15:02.934Z,20
2023-03-23T09:17:32.920Z,20
2023-03-23T09:20:03.712Z,20
2023-03-23T09:22:32.406Z,20
2023-03-23T09:25:03.412Z,20
2023-03-23T09:27:34.367Z,23
2023-03-23T09:30:05.442Z,20
2023-03-23T09:32:38.251Z,20
2023-03-23T09:35:08.561Z,24
2023-03-23T09:37:40.826Z,20
2023-03-23T09:40:11.931Z,20
2023-03-23T09:42:42.270Z,20
2023-03-23T09:45:12.378Z,20
2023-03-23T09:47:43.270Z,20
2023-03-23T09:50:14.052Z,22
2023-03-23T09:52:44.995Z,20
2023-03-23T09:55:16.324Z,20
2023-03-23T09:57:49.123Z,20
2023-03-23T10:00:19.491Z,20
2023-03-23T10:02:49.986Z,20
2023-03-23T10:05:20.966Z,20
2023-03-23T10:07:51.532Z,20
2023-03-23T10:10:25.161Z,24
2023-03-23T10:12:56.149Z,23
2023-03-23T10:15:27.446Z,20
2023-03-23T10:17:58.264Z,23
2023-03-23T10:20:29.112Z,20
2023-03-23T10:23:00.125Z,20
2023-03-23T10:25:30.840Z,23
2023-03-23T10:28:01.579Z,20
2023-03-23T10:30:32.663Z,20
2023-03-23T10:33:03.512Z,20
2023-03-23T10:35:34.256Z,20
2023-03-23T10:38:05.405Z,20
2023-03-23T10:40:36.176Z,20
2023-03-23T10:43:06.637Z,16
2023-03-23T10:45:37.506Z,20
2023-03-23T10:48:08.186Z,16
2023-03-23T10:50:39.324Z,16
2023-03-23T10:53:10.565Z,20
2023-03-23T10:55:41.136Z,13
2023-03-23T10:58:11.430Z,16
2023-03-23T11:00:41.613Z,20
2023-03-23T11:03:11.625Z,16
2023-03-23T11:05:42.213Z,16
2023-03-23T11:08:12.407Z,20
2023-03-23T11:10:42.700Z,16
2023-03-23T11:13:12.782Z,16
2023-03-23T11:15:43.187Z,16
2023-03-23T11:18:13.634Z,16
2023-03-23T11:20:43.706Z,16
2023-03-23T11:23:14.625Z,16
2023-03-23T11:25:44.620Z,16
2023-03-23T11:28:15.147Z,16
2023-03-23T11:30:45.425Z,12
2023-03-23T11:33:15.529Z,12
2023-03-23T11:35:45.922Z,16
2023-03-23T11:38:15.966Z,20
2023-03-23T11:40:46.084Z,16
2023-03-23T11:43:16.590Z,12
2023-03-23T11:45:46.773Z,12
2023-03-23T11:48:16.880Z,14
2023-03-23T11:50:47.050Z,12
2023-03-23T11:53:17.524Z,13
2023-03-23T11:55:47.786Z,16
2023-03-23T11:58:16.473Z,16
2023-03-23T12:00:45.211Z,14
2023-03-23T12:03:15.649Z,12
2023-03-23T12:05:46.564Z,12
2023-03-23T12:08:16.909Z,12
2023-03-23T12:13:20.983Z,16
2023-03-23T12:15:48.563Z,12
2023-03-23T12:18:18.989Z,12
2023-03-23T12:20:49.341Z,16
2023-03-23T12:23:19.783Z,10
2023-03-23T12:25:50.364Z,13
2023-03-23T12:28:20.571Z,16
2023-03-23T12:30:53.065Z,20
2023-03-23T12:33:22.310Z,20
2023-03-23T12:35:52.184Z,16
2023-03-23T12:38:22.395Z,12
2023-03-23T12:40:54.103Z,14
2023-03-23T12:43:23.378Z,16
2023-03-23T12:45:53.698Z,16
2023-03-23T12:48:23.859Z,13
2023-03-23T12:50:54.141Z,12
2023-03-23T12:53:24.621Z,16
2023-03-23T12:55:54.801Z,16
2023-03-23T12:58:25.130Z,13
2023-03-23T13:00:55.385Z,14
2023-03-23T13:03:26.262Z,9
2023-03-23T13:05:57.849Z,16
2023-03-23T13:08:27.961Z,16
2023-03-23T13:10:58.220Z,16
2023-03-23T13:13:28.796Z,16
2023-03-23T13:15:58.971Z,17
2023-03-23T13:18:29.295Z,12
2023-03-23T13:20:59.730Z,16
2023-03-23T13:23:30.082Z,16
2023-03-23T13:26:00.315Z,16
2023-03-23T13:28:30.636Z,12
2023-03-23T13:31:01.226Z,16
2023-03-23T13:33:31.767Z,16
2023-03-23T13:36:02.771Z,13
2023-03-23T13:38:33.135Z,12
2023-03-23T13:41:03.485Z,15
2023-03-23T13:43:34.329Z,16
2023-03-23T13:46:04.789Z,12
2023-03-23T13:48:35.785Z,12
2023-03-23T13:51:06.604Z,15
2023-03-23T13:53:37.180Z,16
2023-03-23T13:56:12.169Z,13
2023-03-23T13:58:37.731Z,16
2023-03-23T14:01:08.204Z,12
2023-03-23T14:03:38.674Z,12
2023-03-23T14:06:09.211Z,15
2023-03-23T14:08:39.963Z,12
2023-03-23T14:11:10.327Z,16
2023-03-23T14:13:40.813Z,16
2023-03-23T14:16:11.582Z,16
2023-03-23T14:18:41.882Z,12
2023-03-23T14:21:12.534Z,16
2023-03-23T14:23:43.011Z,12
2023-03-23T14:26:13.030Z,12
2023-03-23T14:28:43.618Z,12
2023-03-23T14:31:13.883Z,12
2023-03-23T14:33:44.846Z,12
2023-03-23T14:36:15.778Z,12
2023-03-23T14:38:46.536Z,12
2023-03-23T14:41:17.669Z,14
2023-03-23T14:43:48.094Z,12
2023-03-23T14:46:18.274Z,12
2023-03-23T14:48:48.570Z,12
2023-03-23T14:51:18.919Z,12
2023-03-23T14:53:48.698Z,16
2023-03-23T14:56:20.140Z,12
2023-03-23T14:58:50.420Z,16
2023-03-23T15:01:20.736Z,16
2023-03-23T15:03:51.362Z,13
2023-03-23T15:06:22.108Z,17
2023-03-23T15:08:52.216Z,16
2023-03-23T15:11:23.185Z,16
2023-03-23T15:13:54.692Z,16
2023-03-23T15:16:28.743Z,16
2023-03-23T15:18:59.026Z,16
2023-03-23T15:21:29.747Z,20
2023-03-23T15:23:59.634Z,20
2023-03-23T15:26:30.057Z,20
2023-03-23T15:29:04.785Z,24
2023-03-23T15:31:35.222Z,20
2023-03-23T15:34:05.196Z,20
2023-03-23T15:36:35.276Z,17
2023-03-23T15:39:05.162Z,16
2023-03-23T15:41:35.756Z,16
2023-03-23T15:44:08.434Z,20
2023-03-23T15:46:38.849Z,21
2023-03-23T15:49:09.540Z,22
2023-03-23T15:51:39.701Z,20
2023-03-23T15:54:14.069Z,23
2023-03-23T15:56:42.935Z,20
2023-03-23T15:59:13.314Z,16
2023-03-23T16:01:41.885Z,24
2023-03-23T16:04:12.054Z,24
2023-03-23T16:06:42.794Z,20
2023-03-23T16:09:13.483Z,24
2023-03-23T16:11:43.763Z,22
2023-03-23T16:14:14.451Z,20
2023-03-23T16:16:45.762Z,18
2023-03-23T16:19:16.079Z,20
2023-03-23T16:21:46.991Z,20
2023-03-23T16:24:17.943Z,16
2023-03-23T16:26:48.245Z,20
2023-03-23T16:29:28.914Z,20
2023-03-23T16:31:48.997Z,24
2023-03-23T16:34:18.993Z,23
2023-03-23T16:36:49.907Z,20
2023-03-23T16:39:19.949Z,20
2023-03-23T16:41:50.055Z,20
2023-03-23T16:44:20.113Z,23
2023-03-23T16:46:50.291Z,20
2023-03-23T16:49:20.414Z,20
2023-03-23T16:51:50.428Z,20
2023-03-23T16:54:20.792Z,20
2023-03-23T16:56:50.931Z,20
2023-03-23T16:59:19.691Z,20
2023-03-23T17:01:49.877Z,20
2023-03-23T17:04:20.431Z,20
2023-03-23T17:06:50.794Z,20
2023-03-23T17:09:21.341Z,20
2023-03-23T17:11:51.682Z,24
2023-03-23T17:14:21.651Z,20
2023-03-23T17:16:52.190Z,20
2023-03-23T17:19:22.245Z,20
2023-03-23T17:21:52.706Z,20
2023-03-23T17:24:23.327Z,24
2023-03-23T17:26:53.792Z,24
2023-03-23T17:29:24.160Z,24
2023-03-23T17:31:55.928Z,24
2023-03-23T17:34:26.580Z,24
2023-03-23T17:36:56.713Z,24
2023-03-23T17:39:26.807Z,24
2023-03-23T17:41:57.157Z,24
2023-03-23T17:44:27.205Z,24
2023-03-23T17:46:58.461Z,28
2023-03-23T17:49:28.894Z,28
2023-03-23T17:51:58.877Z,28
2023-03-23T17:54:29.197Z,28
2023-03-23T17:56:59.324Z,28
2023-03-23T17:59:29.288Z,28
2023-03-23T18:01:59.371Z,24
2023-03-23T18:04:31.647Z,29
2023-03-23T18:07:02.040Z,28
2023-03-23T18:09:32.127Z,32
2023-03-23T18:12:02.945Z,29
2023-03-23T18:14:32.677Z,32
2023-03-23T18:17:02.779Z,32
2023-03-23T18:19:32.866Z,32
2023-03-23T18:22:03.442Z,36
2023-03-23T18:24:31.940Z,36
2023-03-23T18:27:02.379Z,42
2023-03-23T18:29:32.408Z,40
2023-03-23T18:32:02.596Z,45
2023-03-23T18:34:32.789Z,48
2023-03-23T18:37:03.012Z,52
2023-03-23T18:39:34.217Z,44
2023-03-23T18:42:04.106Z,44
2023-03-23T18:44:34.225Z,44
2023-03-23T18:47:07.848Z,38
2023-03-23T18:49:38.275Z,44
2023-03-23T18:52:08.943Z,44
2023-03-23T18:54:38.936Z,45
2023-03-23T18:57:09.501Z,48
2023-03-23T18:59:39.408Z,52
2023-03-23T19:02:09.307Z,49
2023-03-23T19:04:39.407Z,48
2023-03-23T19:07:09.366Z,52
2023-03-23T19:09:42.135Z,51
2023-03-23T19:12:12.581Z,52
2023-03-23T19:14:42.674Z,52
2023-03-23T19:17:12.819Z,52
2023-03-23T19:19:43.701Z,51
2023-03-23T19:22:13.025Z,54
2023-03-23T19:24:43.211Z,52
2023-03-23T19:27:13.615Z,55
2023-03-23T19:29:44.128Z,56
2023-03-23T19:32:14.801Z,59
2023-03-23T19:34:50.481Z,60
2023-03-23T19:37:15.263Z,60
2023-03-23T19:39:45.355Z,61
2023-03-23T19:42:15.384Z,60
2023-03-23T19:44:45.473Z,64
2023-03-23T19:47:15.768Z,65
2023-03-23T19:49:46.538Z,68
2023-03-23T19:52:18.648Z,60
2023-03-23T19:54:53.232Z,62
2023-03-23T19:57:23.187Z,64
2023-03-23T19:59:53.521Z,60
2023-03-23T20:02:23.951Z,60
2023-03-23T20:04:55.118Z,76
2023-03-23T20:07:26.641Z,94
2023-03-23T20:09:54.462Z,104
2023-03-23T20:12:24.406Z,100
2023-03-23T20:14:54.672Z,96
2023-03-23T20:17:25.528Z,94
2023-03-23T20:19:55.895Z,90
2023-03-23T20:22:25.987Z,84
2023-03-23T20:24:56.686Z,76
2023-03-23T20:27:27.203Z,76
2023-03-23T20:29:57.342Z,84
2023-03-23T20:32:26.033Z,87
2023-03-23T20:34:56.055Z,89
2023-03-23T20:37:26.225Z,88
2023-03-23T20:39:56.077Z,96
2023-03-23T20:42:26.594Z,96
2023-03-23T20:44:57.257Z,96
2023-03-23T20:47:27.257Z,91
2023-03-23T20:49:57.654Z,92
2023-03-23T20:52:28.043Z,88
2023-03-23T20:54:58.509Z,84
2023-03-23T20:57:28.853Z,82
2023-03-23T20:59:59.323Z,75
2023-03-23T21:02:29.545Z,80
2023-03-23T21:04:59.818Z,89
2023-03-23T21:07:33.921Z,74
2023-03-23T21:10:04.297Z,72
2023-03-23T21:12:34.719Z,80
2023-03-23T21:15:05.036Z,88
2023-03-23T21:17:35.311Z,76
2023-03-23T21:20:05.392Z,79
2023-03-23T21:22:35.557Z,64
2023-03-23T21:25:05.894Z,60
2023-03-23T21:27:36.382Z,48
2023-03-23T21:30:06.955Z,52
2023-03-23T21:32:36.995Z,55
2023-03-23T21:35:07.330Z,45
2023-03-23T21:37:37.651Z,40
2023-03-23T21:40:08.163Z,36
2023-03-23T21:42:38.500Z,40
2023-03-23T21:45:08.634Z,40
2023-03-23T21:47:39.010Z,39
2023-03-23T21:50:09.418Z,48
2023-03-23T21:52:39.982Z,44
2023-03-23T21:55:10.804Z,49
2023-03-23T21:57:41.602Z,61
2023-03-23T22:00:12.415Z,64
2023-03-23T22:02:42.738Z,56
2023-03-23T22:05:12.895Z,57
2023-03-23T22:07:43.208Z,50
2023-03-23T22:10:13.856Z,44
2023-03-23T22:12:43.923Z,37
2023-03-23T22:15:14.436Z,39
2023-03-23T22:17:45.233Z,44
2023-03-23T22:20:16.104Z,43
2023-03-23T22:22:45.894Z,40
2023-03-23T22:25:16.533Z,36
2023-03-23T22:27:46.997Z,52
2023-03-23T22:30:17.468Z,45
2023-03-23T22:32:48.275Z,40
2023-03-23T22:35:18.981Z,36
2023-03-23T22:37:49.820Z,32
2023-03-23T22:40:20.653Z,32
2023-03-23T22:42:51.034Z,32
2023-03-23T22:45:21.245Z,32
2023-03-23T22:47:51.983Z,32
2023-03-23T22:50:22.771Z,32
2023-03-23T22:52:53.566Z,32
2023-03-23T22:55:24.289Z,27
2023-03-23T22:57:54.876Z,28
2023-03-23T23:00:26.131Z,28
2023-03-23T23:02:56.713Z,28
2023-03-23T23:05:27.694Z,28
2023-03-23T23:07:58.369Z,28
2023-03-23T23:10:29.219Z,28
2023-03-23T23:12:59.858Z,28
2023-03-23T23:15:30.504Z,32
2023-03-23T23:18:00.705Z,31
2023-03-23T23:20:31.565Z,28
2023-03-23T23:23:02.217Z,28
2023-03-23T23:25:33.133Z,28
2023-03-23T23:28:03.487Z,28
2023-03-23T23:30:34.071Z,28
2023-03-23T23:33:04.910Z,27
2023-03-23T23:35:35.317Z,28
2023-03-23T23:38:06.506Z,32
2023-03-23T23:40:37.001Z,35
2023-03-23T23:43:07.816Z,35
2023-03-23T23:45:38.318Z,34
2023-03-23T23:48:09.013Z,32
2023-03-23T23:50:38.262Z,32
2023-03-23T23:53:08.649Z,32
2023-03-23T23:55:39.427Z,32
2023-03-23T23:58:09.934Z,36
